Time;durP1;ratioP1;P1;durP2;ratioP2;P2;SDS_P1;SDS_P2;PMS_P1;PMS_P2;Temp;Humidity;BMP_temperature;BMP_pressure;BME280_temperature;BME280_humidity;BME280_pressure;Samples;Min_cycle;Max_cycle;Signal;HPM_P1;HPM_P2
2023/07/07 00:01:12;;;;;;;7.47;5.37;;;20.00;74.50;;;22.75;49.74;101925.00;4975699;28;20212;-60
2023/07/07 00:03:38;;;;;;;5.57;4.90;;;20.00;74.50;;;22.74;49.72;101923.38;4975966;28;20224;-59
2023/07/07 00:06:05;;;;;;;5.20;4.73;;;20.00;74.70;;;22.73;49.95;101924.41;4975943;28;20238;-59
2023/07/07 00:08:33;;;;;;;7.10;5.60;;;19.90;74.80;;;22.72;49.87;101925.47;4975942;28;20542;-60
2023/07/07 00:11:00;;;;;;;7.13;5.90;;;19.90;74.80;;;22.71;49.76;101928.34;4975800;28;20223;-60
2023/07/07 00:13:27;;;;;;;8.63;7.73;;;19.90;74.60;;;22.66;49.61;101934.41;4976078;28;20713;-60
2023/07/07 00:16:01;;;;;;;8.70;7.80;;;19.90;74.50;;;22.58;49.57;101929.28;4976162;28;20275;-57
2023/07/07 00:18:29;;;;;;;9.57;8.67;;;19.90;74.30;;;22.52;49.44;101924.84;4975991;28;20620;-59
2023/07/07 00:21:01;;;;;;;9.27;7.17;;;19.80;74.20;;;22.45;49.89;101931.31;4975534;28;20228;-59
2023/07/07 00:23:32;;;;;;;7.80;7.00;;;19.80;74.40;;;22.35;50.12;101931.84;4976015;28;20199;-58
2023/07/07 00:26:02;;;;;;;8.27;6.50;;;19.80;74.70;;;22.26;50.24;101930.50;4975655;28;20272;-58
2023/07/07 00:28:30;;;;;;;7.80;6.60;;;19.70;74.80;;;22.22;50.65;101934.66;4975427;28;20201;-56
2023/07/07 00:30:59;;;;;;;6.77;5.73;;;19.60;75.10;;;22.13;51.01;101938.69;4975634;28;20208;-59
2023/07/07 00:33:28;;;;;;;7.73;6.23;;;19.60;75.40;;;22.09;51.15;101940.97;4975958;28;20189;-56
2023/07/07 00:35:55;;;;;;;7.53;6.80;;;19.50;75.70;;;22.09;51.17;101934.78;4975535;28;20197;-58
2023/07/07 00:38:22;;;;;;;7.87;6.20;;;19.50;76.00;;;22.07;51.11;101940.38;4975858;28;20666;-58
2023/07/07 00:40:52;;;;;;;6.97;6.10;;;19.40;76.00;;;22.03;51.08;101938.38;4974778;28;20224;-57
2023/07/07 00:43:21;;;;;;;6.83;6.13;;;19.40;76.00;;;22.02;51.27;101942.06;4974875;28;20558;-59
2023/07/07 00:45:48;;;;;;;5.87;5.37;;;19.40;76.00;;;22.01;50.95;101941.25;4975215;28;20189;-58
2023/07/07 00:48:21;;;;;;;6.67;6.03;;;19.30;76.10;;;22.05;51.24;101944.31;4975319;28;20610;-55
2023/07/07 00:50:55;;;;;;;6.93;5.23;;;19.30;76.80;;;22.06;50.89;101946.78;4973305;28;20232;-58
2023/07/07 00:53:24;;;;;;;6.93;5.70;;;19.30;76.60;;;22.07;50.63;101942.22;4975369;28;20195;-55
2023/07/07 00:56:00;;;;;;;6.20;5.60;;;19.30;76.40;;;22.02;51.19;101939.38;4975155;28;20582;-56
2023/07/07 00:58:29;;;;;;;5.43;4.93;;;19.40;76.50;;;22.03;51.27;101935.69;4974802;28;20651;-58
2023/07/07 01:01:02;;;;;;;5.87;5.33;;;19.30;76.60;;;22.02;51.51;101950.94;4975082;28;20207;-58
2023/07/07 01:03:38;;;;;;;5.20;4.50;;;19.30;76.60;;;22.02;51.40;101950.94;4975061;28;20701;-56
2023/07/07 01:06:10;;;;;;;6.93;5.83;;;19.30;76.50;;;22.04;51.32;101948.03;4974999;28;20283;-57
2023/07/07 01:08:40;;;;;;;5.83;5.33;;;19.30;76.50;;;22.04;51.24;101948.03;4974782;28;20673;-59
2023/07/07 01:11:08;;;;;;;7.80;6.03;;;19.30;76.10;;;21.99;50.67;101942.50;4974768;28;20271;-57
2023/07/07 01:13:36;;;;;;;5.30;4.80;;;19.30;75.80;;;21.94;50.79;101942.38;4975093;28;20220;-54
2023/07/07 01:16:18;;;;;;;5.13;4.63;;;19.30;75.70;;;21.86;50.73;101948.81;4974682;28;20197;-57
2023/07/07 01:18:58;;;;;;;6.63;5.40;;;19.30;75.80;;;21.84;50.86;101948.22;4974760;28;20181;-58
2023/07/07 01:21:37;;;;;;;5.57;5.03;;;19.20;75.90;;;21.79;50.47;101941.84;4974626;28;20187;-58
2023/07/07 01:24:36;;;;;;;6.27;5.67;;;19.20;75.80;;;21.70;51.21;101945.81;4975223;28;20196;-57
2023/07/07 01:27:42;;;;;;;5.97;5.40;;;19.10;75.80;;;21.63;51.17;101945.06;4974687;28;20197;-59
2023/07/07 01:30:31;;;;;;;5.13;4.70;;;19.10;76.00;;;21.62;51.29;101946.91;4974344;28;20650;-57
2023/07/07 01:33:02;;;;;;;5.43;4.57;;;19.00;76.10;;;21.63;50.94;101945.06;4974697;28;20200;-58
2023/07/07 01:35:29;;;;;;;6.50;5.90;;;19.00;76.10;;;21.62;51.50;101951.44;4974554;28;20192;-58
2023/07/07 01:37:59;;;;;;;5.27;4.77;;;19.00;76.30;;;21.55;51.65;101943.47;4974440;28;20576;-57
2023/07/07 01:40:38;;;;;;;4.93;4.43;;;18.90;76.30;;;21.51;51.04;101942.25;4973971;28;20238;-57
2023/07/07 01:43:14;;;;;;;7.73;5.00;;;18.90;76.50;;;21.48;51.72;101943.50;4974086;28;20231;-60
2023/07/07 01:45:52;;;;;;;7.57;4.70;;;18.80;76.80;;;21.50;51.80;101952.16;4974709;28;20219;-60
2023/07/07 01:48:32;;;;;;;5.73;4.63;;;18.80;77.40;;;21.52;51.94;101950.06;4975048;28;20239;-60
2023/07/07 01:51:02;;;;;;;7.00;5.60;;;18.80;77.30;;;21.53;51.18;101938.34;4973179;28;20204;-57
2023/07/07 01:53:33;;;;;;;6.30;5.20;;;18.80;76.80;;;21.51;51.70;101947.63;4974961;28;20169;-60
2023/07/07 01:56:02;;;;;;;6.37;5.77;;;18.80;76.80;;;21.44;51.78;101942.28;4974554;28;20243;-56
2023/07/07 01:58:33;;;;;;;6.47;5.30;;;18.80;77.50;;;21.37;51.66;101941.50;4974978;28;20272;-57
2023/07/07 02:01:03;;;;;;;5.43;4.60;;;18.70;76.70;;;21.30;51.77;101942.59;4983231;28;20189;-57
2023/07/07 02:03:30;;;;;;;6.07;5.37;;;18.70;76.90;;;21.27;52.08;101935.00;4974821;28;20213;-58
2023/07/07 02:05:57;;;;;;;8.43;5.47;;;18.70;76.90;;;21.26;51.86;101927.97;4974512;28;20199;-55
2023/07/07 02:08:24;;;;;;;5.10;4.70;;;18.60;76.90;;;21.26;51.55;101934.16;4974444;28;20193;-56
2023/07/07 02:10:50;;;;;;;4.83;4.43;;;18.60;77.00;;;21.27;51.90;101930.47;4974493;28;20212;-55
2023/07/07 02:13:19;;;;;;;5.47;5.00;;;18.60;77.10;;;21.28;51.59;101926.72;4974434;28;20240;-57
2023/07/07 02:15:46;;;;;;;6.00;5.47;;;18.60;77.10;;;21.25;51.43;101937.88;4974412;28;20201;-58
2023/07/07 02:18:14;;;;;;;5.90;5.20;;;18.60;77.00;;;21.23;51.82;101934.59;4974357;28;20200;-59
2023/07/07 02:20:41;;;;;;;6.37;5.10;;;18.50;77.00;;;21.18;52.03;101931.72;4973928;28;20216;-59
2023/07/07 02:23:08;;;;;;;4.93;4.53;;;18.50;77.10;;;21.17;52.07;101932.78;4975262;28;20216;-57
2023/07/07 02:25:35;;;;;;;5.23;4.73;;;18.50;77.40;;;21.18;51.78;101930.94;4977815;28;20189;-58
2023/07/07 02:28:02;;;;;;;4.87;4.47;;;18.50;77.50;;;21.19;51.50;101933.38;4977471;28;20185;-59
2023/07/07 02:30:29;;;;;;;5.60;5.10;;;18.50;77.30;;;21.20;52.05;101928.84;4977596;28;20304;-61
2023/07/07 02:32:57;;;;;;;5.00;4.50;;;18.50;77.40;;;21.18;51.68;101926.38;4977621;28;20526;-58
2023/07/07 02:35:26;;;;;;;5.30;4.33;;;18.50;77.50;;;21.21;52.00;101928.63;4977760;28;20193;-57
2023/07/07 02:37:55;;;;;;;5.40;5.00;;;18.50;78.00;;;21.24;52.14;101924.69;4977685;28;20192;-59
2023/07/07 02:40:22;;;;;;;6.37;5.23;;;18.50;78.40;;;21.29;51.96;101933.75;4977252;28;20250;-58
2023/07/07 02:42:49;;;;;;;5.77;5.17;;;18.50;78.40;;;21.33;52.48;101926.91;4977555;28;20213;-59
2023/07/07 02:45:16;;;;;;;5.87;5.27;;;18.60;78.50;;;21.36;52.10;101928.34;4977625;28;20227;-60
2023/07/07 02:47:43;;;;;;;6.37;5.53;;;18.60;78.50;;;21.37;51.84;101925.44;4977816;28;20197;-60
2023/07/07 02:50:10;;;;;;;8.70;5.37;;;18.60;78.20;;;21.37;52.16;101925.44;4977156;28;20236;-58
2023/07/07 02:52:39;;;;;;;6.77;5.90;;;18.60;78.20;;;21.41;52.07;101937.38;4958631;28;20212;-59
2023/07/07 02:55:07;;;;;;;7.20;5.20;;;18.60;78.90;;;21.40;51.95;101925.00;4965939;28;20215;-60
2023/07/07 02:57:33;;;;;;;6.10;5.47;;;18.60;78.10;;;21.43;51.93;101931.78;4977315;28;20193;-57
2023/07/07 03:00:00;;;;;;;6.47;4.80;;;18.70;78.20;;;21.43;51.90;101935.31;4977179;28;20263;-59
2023/07/07 03:02:27;;;;;;;5.70;5.20;;;18.70;78.30;;;21.47;52.15;101938.34;4977241;28;20567;-59
2023/07/07 03:04:54;;;;;;;5.67;4.77;;;18.70;78.20;;;21.49;51.63;101939.78;4977042;28;20196;-60
2023/07/07 03:07:21;;;;;;;5.97;5.37;;;18.70;77.80;;;21.46;51.27;101940.22;4976863;28;20193;-59
2023/07/07 03:09:49;;;;;;;6.33;5.73;;;18.70;77.40;;;21.44;51.60;101947.63;4976892;28;20744;-60
2023/07/07 03:12:16;;;;;;;8.60;6.10;;;18.70;77.20;;;21.38;51.53;101943.16;4977376;28;20199;-59
2023/07/07 03:14:43;;;;;;;9.53;6.27;;;18.70;77.10;;;21.28;51.57;101953.53;4977059;28;20613;-59
2023/07/07 03:17:10;;;;;;;6.33;5.70;;;18.70;77.00;;;21.18;51.96;101958.50;4976767;28;20231;-61
2023/07/07 03:19:40;;;;;;;6.53;5.93;;;18.60;77.10;;;21.05;51.60;101961.28;4976397;28;20300;-57
2023/07/07 03:22:07;;;;;;;7.03;6.13;;;18.50;77.30;;;20.97;52.24;101960.66;4976621;28;20716;-59
2023/07/07 03:24:34;;;;;;;7.40;5.67;;;18.40;77.50;;;20.89;52.47;101959.84;4976627;28;20231;-58
2023/07/07 03:27:03;;;;;;;5.67;5.17;;;18.30;77.70;;;20.85;52.11;101947.09;4976786;28;20199;-58
2023/07/07 03:29:30;;;;;;;5.53;5.03;;;18.20;78.00;;;20.82;53.14;101963.63;4976432;28;20220;-57
2023/07/07 03:31:57;;;;;;;5.83;5.10;;;18.20;78.50;;;20.83;52.30;101959.88;4977042;28;20228;-60
2023/07/07 03:34:25;;;;;;;6.13;5.63;;;18.10;78.60;;;20.83;53.30;101965.25;4975284;28;20203;-56
2023/07/07 03:36:52;;;;;;;6.07;5.50;;;18.10;79.10;;;20.87;53.30;101961.13;4976529;28;20675;-56
2023/07/07 03:39:19;;;;;;;6.00;5.40;;;18.10;79.80;;;20.91;53.60;101956.97;4976208;28;20212;-58
2023/07/07 03:41:46;;;;;;;6.80;4.93;;;18.20;79.90;;;20.97;53.39;101956.13;4976501;28;20187;-59
2023/07/07 03:44:15;;;;;;;7.30;6.13;;;18.20;79.80;;;20.99;53.18;101964.75;4975655;28;20295;-55
2023/07/07 03:46:42;;;;;;;5.83;5.30;;;18.20;79.30;;;20.96;52.54;101959.84;4976571;28;20189;-60
2023/07/07 03:49:09;;;;;;;5.47;4.93;;;18.20;78.90;;;20.93;52.79;101973.66;4975900;28;20227;-59
2023/07/07 03:51:37;;;;;;;6.67;5.30;;;18.20;78.60;;;20.87;52.41;101972.63;4966163;28;20201;-59
2023/07/07 03:54:05;;;;;;;7.13;5.73;;;18.20;78.50;;;20.83;53.02;101984.81;4956793;28;20189;-59
2023/07/07 03:56:32;;;;;;;6.87;6.23;;;18.20;78.60;;;20.76;53.16;101989.34;4957132;28;20655;-59
2023/07/07 03:58:59;;;;;;;5.60;5.10;;;18.10;78.60;;;20.70;52.82;101992.06;4956508;28;20716;-57
2023/07/07 04:01:28;;;;;;;5.60;4.97;;;18.10;78.80;;;20.68;53.47;101989.56;4957090;28;20289;-60
2023/07/07 04:03:56;;;;;;;6.03;5.00;;;18.00;79.10;;;20.70;52.81;101986.72;4956405;28;20290;-58
2023/07/07 04:06:24;;;;;;;5.87;5.37;;;18.00;79.30;;;20.72;53.51;101979.28;4957013;28;20193;-59
2023/07/07 04:08:51;;;;;;;5.80;5.37;;;18.00;79.40;;;20.73;53.25;101988.94;4956407;28;20209;-59
2023/07/07 04:11:20;;;;;;;6.47;5.87;;;18.00;79.70;;;20.74;52.94;101987.91;4971454;28;20685;-59
2023/07/07 04:13:50;;;;;;;6.77;6.17;;;18.00;79.60;;;20.68;53.39;101989.56;4956709;28;20193;-60
2023/07/07 04:16:20;;;;;;;8.73;6.50;;;18.00;79.60;;;20.62;53.39;101986.91;4956342;28;20280;-59
2023/07/07 04:18:52;;;;;;;6.23;5.57;;;18.00;79.70;;;20.60;53.85;101986.31;4956055;28;20201;-59
2023/07/07 04:21:22;;;;;;;8.40;6.27;;;18.00;80.00;;;20.59;53.58;101988.16;4956345;28;20287;-59
2023/07/07 04:23:54;;;;;;;7.03;6.30;;;18.00;80.10;;;20.56;53.71;101993.91;4956483;28;20686;-59
2023/07/07 04:26:23;;;;;;;7.67;6.23;;;18.00;80.30;;;20.54;53.91;101992.53;4956479;28;20188;-56
2023/07/07 04:28:52;;;;;;;7.23;6.07;;;17.90;79.90;;;20.55;54.01;101989.63;4955818;28;20221;-58
2023/07/07 04:31:23;;;;;;;6.90;6.20;;;17.90;80.30;;;20.54;54.24;101997.88;4956365;28;20197;-60
2023/07/07 04:33:52;;;;;;;7.47;6.43;;;17.90;80.50;;;20.54;54.10;102003.22;4955504;28;20177;-58
2023/07/07 04:36:21;;;;;;;7.47;6.70;;;17.90;80.40;;;20.50;53.94;101997.44;4955768;28;20224;-59
2023/07/07 04:38:49;;;;;;;8.93;6.40;;;17.90;80.50;;;20.49;54.68;101998.47;4955735;28;20197;-59
2023/07/07 04:41:19;;;;;;;7.10;6.50;;;17.90;80.60;;;20.42;54.63;101991.50;4956128;28;20239;-59
2023/07/07 04:43:49;;;;;;;7.40;6.70;;;17.90;80.60;;;20.36;54.63;101995.00;4955259;28;20681;-59
2023/07/07 04:46:21;;;;;;;7.00;6.47;;;17.80;80.80;;;20.31;55.12;101997.47;4955682;28;20181;-60
2023/07/07 04:48:48;;;;;;;7.27;6.67;;;17.80;80.90;;;20.30;54.72;102001.19;4973094;28;20193;-61
2023/07/07 04:51:18;;;;;;;6.80;6.13;;;17.80;81.20;;;20.31;55.03;101997.47;4973899;28;20201;-60
2023/07/07 04:53:46;;;;;;;7.00;6.30;;;17.80;81.20;;;20.34;55.14;101999.72;4975431;28;20184;-60
2023/07/07 04:56:16;;;;;;;8.37;7.03;;;17.80;81.20;;;20.33;55.20;101996.22;4975107;28;20678;-60
2023/07/07 04:58:46;;;;;;;7.07;6.47;;;17.80;81.40;;;20.33;55.05;101995.41;4974564;28;20279;-58
2023/07/07 05:01:15;;;;;;;6.67;6.07;;;17.80;81.60;;;20.33;55.33;101998.06;4974941;28;20188;-60
2023/07/07 05:03:45;;;;;;;10.60;7.40;;;17.80;81.50;;;20.34;54.99;102005.09;4974677;28;20212;-61
2023/07/07 05:06:13;;;;;;;7.77;6.87;;;17.80;81.70;;;20.36;54.87;102005.69;4974967;28;20199;-57
2023/07/07 05:08:42;;;;;;;6.60;6.03;;;17.80;81.70;;;20.41;54.74;101997.88;4974761;28;20279;-61
2023/07/07 05:11:12;;;;;;;7.30;6.70;;;17.80;81.70;;;20.47;55.26;102002.38;4974858;28;20284;-59
2023/07/07 05:13:39;;;;;;;8.60;7.17;;;17.80;81.80;;;20.51;54.71;102008.97;4974733;28;20227;-59
2023/07/07 05:16:10;;;;;;;7.17;6.47;;;17.80;81.80;;;20.56;54.82;101998.47;4974615;28;20201;-61
2023/07/07 05:18:37;;;;;;;8.63;7.30;;;17.90;81.90;;;20.61;55.10;102004.81;4974312;28;20192;-61
2023/07/07 05:21:06;;;;;;;8.37;7.57;;;17.90;81.70;;;20.66;54.99;102002.34;4974524;28;20201;-60
2023/07/07 05:23:34;;;;;;;11.50;7.80;;;18.00;81.60;;;20.71;54.32;101999.03;4974639;28;20220;-60
2023/07/07 05:26:03;;;;;;;7.77;7.03;;;18.00;81.50;;;20.76;54.30;102007.25;4974407;28;20220;-58
2023/07/07 05:28:31;;;;;;;7.57;6.97;;;18.10;81.50;;;20.78;54.23;102005.19;4973764;28;20203;-59
2023/07/07 05:30:58;;;;;;;8.73;6.90;;;18.10;81.40;;;20.76;54.85;102004.59;4974524;28;20192;-60
2023/07/07 05:33:28;;;;;;;9.90;6.77;;;18.10;81.40;;;20.76;54.64;102008.09;4974433;28;20496;-60
2023/07/07 05:35:59;;;;;;;7.70;7.03;;;18.20;81.50;;;20.77;54.66;102008.91;4973717;28;20223;-61
2023/07/07 05:38:27;;;;;;;8.40;7.30;;;18.10;81.60;;;20.76;54.80;102007.25;4974076;28;20196;-62
2023/07/07 05:40:56;;;;;;;9.30;7.90;;;18.20;81.80;;;20.75;54.60;102002.97;4973997;28;20271;-61
2023/07/07 05:43:26;;;;;;;8.57;7.70;;;18.20;81.90;;;20.75;55.13;102005.63;4973440;28;20224;-59
2023/07/07 05:45:57;;;;;;;7.33;6.57;;;18.20;81.90;;;20.76;55.34;102004.59;4974516;28;20280;-60
2023/07/07 05:48:27;;;;;;;7.87;7.07;;;18.20;82.10;;;20.78;55.55;102005.19;4974512;28;20251;-58
2023/07/07 05:50:57;;;;;;;9.07;6.70;;;18.20;82.20;;;20.86;55.20;102010.31;4972785;28;20220;-60
2023/07/07 05:53:26;;;;;;;8.20;7.40;;;18.20;82.20;;;20.97;55.20;102006.19;4973888;28;20242;-57
2023/07/07 05:56:03;;;;;;;8.07;7.23;;;18.30;82.50;;;21.10;54.82;102015.00;4973917;28;20248;-59
2023/07/07 05:58:31;;;;;;;7.90;7.10;;;18.40;82.50;;;21.24;54.68;102021.97;4975223;28;20196;-59
2023/07/07 06:00:58;;;;;;;7.37;6.07;;;18.40;83.00;;;21.40;54.10;102009.91;4977853;28;20280;-59
2023/07/07 06:03:25;;;;;;;7.37;6.67;;;18.50;82.10;;;21.50;54.04;102016.47;4978149;28;20291;-60
2023/07/07 06:05:53;;;;;;;8.83;8.00;;;18.70;81.70;;;21.64;53.39;102008.31;4977976;28;20201;-58
2023/07/07 06:08:20;;;;;;;7.47;6.50;;;18.80;81.70;;;21.76;53.36;102014.66;4977867;28;20193;-59
2023/07/07 06:10:48;;;;;;;7.87;6.73;;;18.80;81.40;;;21.83;53.12;102016.25;4977277;28;20292;-59
2023/07/07 06:13:23;;;;;;;8.40;6.77;;;18.90;80.40;;;21.89;52.90;102020.78;4977632;28;20193;-59
2023/07/07 06:15:53;;;;;;;9.07;5.50;;;19.10;80.40;;;21.99;53.03;102015.75;4977332;28;20195;-60
2023/07/07 06:18:21;;;;;;;10.33;6.23;;;19.10;80.40;;;22.14;52.66;102012.72;4977907;28;20217;-57
2023/07/07 06:20:48;;;;;;;7.80;6.27;;;19.20;80.10;;;22.27;52.09;102017.19;4977300;28;20209;-60
2023/07/07 06:23:16;;;;;;;7.70;5.83;;;19.30;79.70;;;22.33;51.50;102022.47;4977297;28;20308;-59
2023/07/07 06:25:43;;;;;;;8.30;4.90;;;19.40;79.20;;;22.46;51.44;102017.00;4977601;28;20386;-58
2023/07/07 06:28:10;;;;;;;6.80;5.30;;;19.50;79.30;;;22.56;51.65;102022.66;4977206;28;20284;-59
2023/07/07 06:30:36;;;;;;;6.70;5.87;;;19.60;78.90;;;22.67;51.16;102013.91;4976707;28;20689;-60
2023/07/07 06:33:05;;;;;;;7.23;6.50;;;19.70;78.70;;;22.80;51.04;102019.13;4976925;28;20203;-61
2023/07/07 06:35:32;;;;;;;8.10;5.90;;;19.80;79.40;;;22.87;50.31;102011.81;4977353;28;20275;-60
2023/07/07 06:37:59;;;;;;;7.33;5.77;;;19.90;77.50;;;22.94;50.19;102019.00;4976823;28;20283;-60
2023/07/07 06:40:26;;;;;;;6.80;5.00;;;20.00;77.20;;;23.02;50.32;102021.34;4976464;28;20230;-60
2023/07/07 06:42:55;;;;;;;8.17;4.80;;;20.20;77.30;;;23.14;49.99;102027.63;4976285;28;20197;-59
2023/07/07 06:45:22;;;;;;;7.37;4.93;;;20.20;76.90;;;23.22;49.73;102021.94;4976203;28;20267;-61
2023/07/07 06:47:49;;;;;;;6.43;5.30;;;20.30;76.60;;;23.33;49.61;102029.25;4977014;28;20203;-59
2023/07/07 06:50:26;;;;;;;9.53;4.83;;;20.40;76.40;;;23.47;49.21;102036.09;4976627;28;20285;-59
2023/07/07 06:52:53;;;;;;;5.20;4.70;;;20.50;76.10;;;23.59;48.61;102034.28;4957680;28;20189;-59
2023/07/07 06:55:20;;;;;;;7.80;5.23;;;20.60;75.50;;;23.72;48.67;102039.50;4957779;28;20269;-59
2023/07/07 06:57:47;;;;;;;5.93;4.73;;;20.80;75.30;;;23.84;48.04;102036.81;4957235;28;20193;-56
2023/07/07 07:00:15;;;;;;;6.30;4.97;;;20.80;74.80;;;23.93;48.09;102041.66;4957140;28;20315;-55
2023/07/07 07:02:43;;;;;;;6.30;3.60;;;21.00;74.80;;;24.07;47.94;102043.09;4957329;28;20284;-56
2023/07/07 07:05:10;;;;;;;5.13;3.70;;;21.10;74.50;;;24.17;46.85;102037.97;4956915;28;20209;-58
2023/07/07 07:07:39;;;;;;;6.43;4.20;;;21.20;72.70;;;24.26;46.32;102051.91;4956935;29;20208;-62
2023/07/07 07:10:07;;;;;;;6.07;3.67;;;21.30;71.40;;;24.32;46.46;102047.47;4956338;28;20300;-58
2023/07/07 07:12:34;;;;;;;6.97;4.10;;;21.40;71.40;;;24.42;46.64;102048.50;4957372;28;20237;-60
2023/07/07 07:15:01;;;;;;;4.53;3.77;;;21.50;71.80;;;24.55;45.88;102044.78;4957190;28;20667;-59
2023/07/07 07:17:28;;;;;;;3.93;3.53;;;21.60;71.10;;;24.67;45.38;102038.34;4957070;28;20511;-57
2023/07/07 07:19:55;;;;;;;4.70;3.63;;;21.70;71.10;;;24.78;45.88;102040.22;4956378;28;20217;-57
2023/07/07 07:22:22;;;;;;;7.23;6.37;;;21.80;71.10;;;24.95;45.61;102045.69;4956728;28;20212;-59
2023/07/07 07:24:50;;;;;;;5.27;3.73;;;21.90;71.30;;;25.08;45.01;102040.03;4956717;28;20213;-58
2023/07/07 07:27:17;;;;;;;5.90;3.67;;;22.10;70.00;;;25.17;44.61;102044.00;4956889;28;20615;-61
2023/07/07 07:29:45;;;;;;;6.87;3.60;;;22.20;69.60;;;25.23;43.49;102047.59;4956501;28;20253;-60
2023/07/07 07:32:12;;;;;;;3.53;3.20;;;22.30;67.10;;;25.32;43.28;102047.00;4956498;28;20320;-60
2023/07/07 07:34:39;;;;;;;3.53;2.67;;;22.40;67.70;;;25.46;43.79;102053.75;4956414;28;20207;-58
2023/07/07 07:37:07;;;;;;;3.40;3.10;;;22.50;67.10;;;25.55;42.23;102044.22;4970094;28;20193;-59
2023/07/07 07:39:34;;;;;;;6.27;3.77;;;22.60;66.20;;;25.70;42.05;102053.69;4975523;28;20216;-61
2023/07/07 07:42:04;;;;;;;5.23;3.63;;;22.70;66.10;;;25.81;42.38;102044.69;4975823;28;20191;-60
2023/07/07 07:44:31;;;;;;;3.53;3.00;;;22.80;65.60;;;25.89;41.75;102041.56;4975636;28;20213;-60
2023/07/07 07:46:59;;;;;;;4.67;3.17;;;22.90;65.20;;;25.96;40.73;102047.66;4975828;28;20276;-59
2023/07/07 07:49:28;;;;;;;5.23;3.33;;;23.00;63.60;;;26.01;41.66;102034.22;4975695;28;20287;-59
2023/07/07 07:51:56;;;;;;;4.33;3.40;;;23.10;64.20;;;26.10;41.07;102039.00;4973634;28;20298;-60
2023/07/07 07:54:23;;;;;;;4.57;2.93;;;23.30;64.10;;;26.20;40.77;102043.75;4975869;28;20646;-59
2023/07/07 07:56:51;;;;;;;5.50;3.00;;;23.30;63.70;;;26.20;39.86;102044.56;4975824;28;20235;-59
2023/07/07 07:59:20;;;;;;;6.23;3.17;;;23.40;60.80;;;26.29;39.90;102049.56;4974977;28;20299;-59
2023/07/07 08:01:47;;;;;;;4.17;3.10;;;23.50;61.80;;;26.36;40.24;102052.94;4975496;28;20283;-60
2023/07/07 08:04:14;;;;;;;5.97;2.93;;;23.50;61.90;;;26.48;40.68;102040.94;4975856;28;20521;-59
2023/07/07 08:06:42;;;;;;;4.13;3.17;;;23.60;62.10;;;26.52;39.12;102047.50;4975421;28;20213;-59
2023/07/07 08:09:11;;;;;;;3.47;2.93;;;23.70;60.40;;;26.56;39.22;102042.41;4974363;28;20208;-61
2023/07/07 08:11:57;;;;;;;4.17;2.70;;;23.80;60.00;;;26.61;38.42;102046.00;4972854;28;20204;-63
2023/07/07 08:14:31;;;;;;;4.00;2.93;;;23.90;59.30;;;26.76;38.61;102043.56;4974789;28;20279;-58
2023/07/07 08:17:04;;;;;;;3.80;2.90;;;24.00;59.60;;;26.90;38.48;102048.59;4976953;28;20199;-60
2023/07/07 08:19:34;;;;;;;2.80;2.60;;;24.00;59.70;;;27.47;38.17;102050.66;4972629;28;20564;-56
2023/07/07 08:22:05;;;;;;;3.97;2.63;;;24.20;59.60;;;28.56;36.20;102061.09;4977040;28;20192;-59
2023/07/07 08:24:37;;;;;;;3.47;2.90;;;24.50;58.80;;;30.17;34.70;102053.47;4984176;28;20263;-61
2023/07/07 08:27:05;;;;;;;3.53;2.57;;;25.00;58.90;;;31.57;32.42;102061.53;4980000;28;20189;-59
2023/07/07 08:29:38;;;;;;;2.43;2.23;;;25.70;57.90;;;33.11;31.15;102060.34;4980037;28;20218;-58
2023/07/07 08:32:06;;;;;;;3.17;2.50;;;26.60;57.50;;;34.54;28.01;102055.91;4975416;28;20215;-59
2023/07/07 08:34:33;;;;;;;4.83;2.87;;;27.50;52.90;;;35.53;25.68;102053.28;4974591;28;20203;-59
2023/07/07 08:37:15;;;;;;;2.83;2.28;;;28.50;48.30;;;36.27;24.60;102057.22;4975517;28;20220;-61
2023/07/07 08:39:43;;;;;;;2.22;2.03;;;29.40;46.10;;;36.56;22.41;102056.72;4973162;28;20252;-60
2023/07/07 08:42:23;;;;;;;2.55;2.17;;;30.00;39.10;;;37.42;22.08;102062.47;4973583;28;20283;-59
2023/07/07 08:44:55;;;;;;;4.35;3.15;;;30.70;39.30;;;38.49;21.48;102064.06;4972727;28;20215;-60
2023/07/07 08:47:53;;;;;;;3.60;2.42;;;31.40;39.40;;;39.60;20.05;102060.66;4973194;28;20224;-60
2023/07/07 08:50:35;;;;;;;2.92;2.22;;;32.10;37.20;;;40.49;19.96;102061.81;4972348;28;20224;-60
2023/07/07 08:53:26;;;;;;;3.75;2.72;;;32.90;36.40;;;41.53;19.12;102064.69;4958684;28;20292;-59
2023/07/07 08:56:02;;;;;;;3.58;2.72;;;33.50;35.40;;;41.87;16.48;102072.38;4973136;28;20758;-59
2023/07/07 08:58:42;;;;;;;3.00;2.42;;;34.10;29.20;;;41.87;16.81;102069.63;4972064;28;20192;-57
2023/07/07 09:01:39;;;;;;;3.45;2.30;;;34.60;29.60;;;42.11;16.03;102069.50;4975065;28;20342;-58
2023/07/07 09:04:33;;;;;;;2.55;2.35;;;35.10;28.70;;;42.76;16.29;102072.72;4966308;28;20553;-60
2023/07/07 09:07:35;;;;;;;3.70;2.35;;;35.50;28.60;;;43.61;15.76;102076.22;4972530;28;20282;-59
2023/07/07 09:10:32;;;;;;;4.35;2.55;;;35.90;28.90;;;44.55;15.68;102067.25;4974631;28;20226;-60
2023/07/07 09:13:09;;;;;;;3.00;2.70;;;36.40;28.20;;;45.21;14.29;102074.16;4957417;28;20196;-60
2023/07/07 09:15:42;;;;;;;3.35;3.03;;;36.90;26.80;;;45.05;14.22;102071.59;4972120;28;20186;-58
2023/07/07 09:18:22;;;;;;;4.78;2.50;;;37.10;25.20;;;44.64;14.22;102073.34;4972222;28;20193;-57
2023/07/07 09:20:55;;;;;;;2.80;2.60;;;37.40;24.60;;;44.47;13.98;102064.72;4971112;28;20298;-59
2023/07/07 09:23:28;;;;;;;4.38;3.50;;;37.40;24.70;;;44.67;14.56;102064.22;4977389;28;20184;-59
2023/07/07 09:26:00;;;;;;;3.05;2.47;;;37.60;25.30;;;45.03;13.38;102065.56;4981440;28;20210;-60
2023/07/07 09:28:34;;;;;;;2.85;2.65;;;37.60;24.30;;;45.36;14.06;102076.75;4982680;28;20490;-59
2023/07/07 09:31:22;;;;;;;5.32;2.80;;;37.80;24.80;;;45.22;12.51;102070.25;4982919;28;20192;-61
2023/07/07 09:33:52;;;;;;;3.63;2.78;;;37.90;23.10;;;45.14;13.18;102071.28;4976022;28;20201;-61
2023/07/07 09:36:28;;;;;;;3.92;2.28;;;38.00;22.90;;;45.15;13.45;102070.13;4977205;28;20223;-58
2023/07/07 09:42:14;;;;;;;3.80;3.50;;;38.20;23.90;;;46.58;12.76;102075.63;5088729;27;20576;-59
2023/07/07 09:45:00;;;;;;;4.57;3.20;;;38.40;23.80;;;46.89;12.02;102063.91;5087965;28;20200;-65
2023/07/07 09:47:37;;;;;;;3.72;3.33;;;38.70;22.90;;;47.12;12.28;102065.63;5089796;28;20541;-61
2023/07/07 09:50:15;;;;;;;3.67;3.03;;;38.90;22.90;;;47.62;11.85;102066.63;5088467;28;20219;-61
2023/07/07 09:52:48;;;;;;;3.53;2.60;;;39.20;22.40;;;47.75;11.22;102065.03;5082147;28;20282;-60
2023/07/07 09:55:21;;;;;;;2.90;2.70;;;39.40;21.60;;;47.91;11.22;102057.91;5077374;28;20601;-61
2023/07/07 09:58:05;;;;;;;6.07;2.85;;;39.60;21.70;;;47.93;10.40;102065.91;5080359;28;20673;-60
2023/07/07 10:00:34;;;;;;;2.72;2.53;;;39.80;20.40;;;47.64;10.69;102064.22;5085193;28;20297;-59
2023/07/07 10:03:22;;;;;;;2.95;2.75;;;39.90;20.00;;;47.52;10.69;102063.41;5074975;28;20178;-60
2023/07/07 10:05:53;;;;;;;3.25;2.95;;;40.00;19.90;;;47.66;10.73;102059.84;5078392;28;20195;-59
2023/07/07 10:08:23;;;;;;;3.75;3.15;;;40.00;20.20;;;47.94;10.16;102057.13;5077589;28;20224;-60
2023/07/07 10:10:59;;;;;;;3.85;3.55;;;40.10;19.70;;;48.50;10.31;102056.31;5079484;28;20666;-61
2023/07/07 10:13:49;;;;;;;4.43;4.03;;;40.20;20.50;;;49.03;9.58;102058.19;5087830;28;20203;-60
2023/07/07 10:16:34;;;;;;;5.07;3.63;;;40.30;20.10;;;49.50;9.62;102051.97;5089031;28;20657;-61
2023/07/07 10:19:06;;;;;;;8.13;7.30;;;40.40;20.40;;;49.69;9.96;102053.50;5072241;28;20212;-60
2023/07/07 10:21:34;;;;;;;6.47;5.88;;;40.60;19.70;;;49.81;9.02;102056.59;5087481;28;20243;-60
2023/07/07 10:24:01;;;;;;;4.45;3.65;;;40.70;19.10;;;49.77;9.46;102060.63;5079389;28;20275;-63
2023/07/07 10:26:32;;;;;;;5.35;3.50;;;40.80;18.70;;;49.10;9.36;102058.16;5079206;28;20197;-60
2023/07/07 10:29:03;;;;;;;3.97;2.85;;;40.80;17.80;;;48.91;9.87;102055.84;5081508;28;20298;-61
2023/07/07 10:31:30;;;;;;;2.72;2.53;;;40.80;18.60;;;48.68;9.15;102050.69;5077130;28;20264;-59